Time;durP1;ratioP1;P1;durP2;ratioP2;P2;SDS_P1;SDS_P2;PMS_P1;PMS_P2;Temp;Humidity;BMP_temperature;BMP_pressure;BME280_temperature;BME280_humidity;BME280_pressure;Samples;Min_cycle;Max_cycle;Signal;HPM_P1;HPM_P2
2023/07/22 00:01:56;;;;;;;;;;;;;;;27.16;45.17;100676.25;5088134;28;1143;-40
2023/07/22 00:04:22;;;;;;;;;;;;;;;24.27;50.28;100679.78;5094464;28;1516;-41
2023/07/22 00:06:47;;;;;;;;;;;;;;;25.47;45.22;100671.28;5097392;28;841;-40
2023/07/22 00:09:12;;;;;;;;;;;;;;;26.12;46.63;100668.47;5084473;28;1913;-41
2023/07/22 00:11:38;;;;;;;;;;;;;;;27.13;43.38;100663.13;5087739;28;1229;-41
2023/07/22 00:14:06;;;;;;;;;;;;;;;27.04;43.67;100665.09;5095228;28;1150;-40
2023/07/22 00:16:31;;;;;;;;;;;;;;;27.17;44.82;100659.03;5097610;28;1201;-40
2023/07/22 00:18:57;;;;;;;;;;;;;;;24.57;48.83;100655.91;5085566;28;1043;-41
2023/07/22 00:21:22;;;;;;;;;;;;;;;25.53;46.23;100645.50;5087681;28;1185;-40
2023/07/22 00:23:48;;;;;;;;;;;;;;;26.16;46.89;100641.97;5094921;28;1055;-39
2023/07/22 00:26:14;;;;;;;;;;;;;;;26.92;43.16;100637.69;5086968;28;1069;-39
2023/07/22 00:28:39;;;;;;;;;;;;;;;26.97;44.19;100629.00;5090933;28;1138;-41
2023/07/22 00:31:05;;;;;;;;;;;;;;;27.23;44.26;100630.44;5093300;28;1902;-40
2023/07/22 00:33:30;;;;;;;;;;;;;;;24.51;49.17;100639.59;5083673;28;1071;-41
2023/07/22 00:35:56;;;;;;;;;;;;;;;25.60;46.06;100633.00;5085402;28;1154;-38
2023/07/22 00:38:21;;;;;;;;;;;;;;;26.32;46.04;100626.72;5093957;28;1133;-40
2023/07/22 00:40:47;;;;;;;;;;;;;;;27.00;43.23;100624.09;5095760;28;1118;-40
2023/07/22 00:43:13;;;;;;;;;;;;;;;27.00;43.83;100616.00;5093427;28;1103;-41
2023/07/22 00:45:38;;;;;;;;;;;;;;;27.13;44.42;100618.06;5071557;28;1164;-40
2023/07/22 00:48:05;;;;;;;;;;;;;;;24.39;48.83;100605.00;5092446;28;1223;-42
2023/07/22 00:50:30;;;;;;;;;;;;;;;25.41;45.58;100597.41;5097285;28;1901;-40
2023/07/22 00:52:56;;;;;;;;;;;;;;;26.16;47.19;100601.53;5082920;28;1071;-41
2023/07/22 00:55:21;;;;;;;;;;;;;;;26.86;43.75;100604.16;5096315;28;831;-41
2023/07/22 00:57:47;;;;;;;;;;;;;;;26.93;44.31;100603.41;5095376;28;1504;-41
2023/07/22 01:00:13;;;;;;;;;;;;;;;27.06;44.70;100603.63;5088045;28;1165;-40
2023/07/22 01:02:39;;;;;;;;;;;;;;;24.66;47.49;100602.97;5089057;28;1482;-41
2023/07/22 01:05:05;;;;;;;;;;;;;;;25.56;44.17;100600.19;5067925;28;1044;-40
2023/07/22 01:07:31;;;;;;;;;;;;;;;26.13;46.70;100600.06;5096562;28;915;-40
2023/07/22 01:09:56;;;;;;;;;;;;;;;26.97;43.18;100596.63;5088222;28;1899;-40
2023/07/22 01:12:22;;;;;;;;;;;;;;;26.88;44.15;100588.63;5078124;28;1162;-40
2023/07/22 01:14:47;;;;;;;;;;;;;;;27.17;43.50;100598.78;5097001;28;1022;-41
2023/07/22 01:17:13;;;;;;;;;;;;;;;24.39;47.46;100593.41;5096425;28;1186;-41
2023/07/22 01:19:38;;;;;;;;;;;;;;;25.00;46.33;100594.88;5092229;28;924;-38
2023/07/22 01:22:10;;;;;;;;;;;;;;;26.13;47.08;100599.19;5081907;28;1032;-41
2023/07/22 01:24:39;;;;;;;;;;;;;;;26.76;43.54;100596.31;5096844;28;1146;-40
2023/07/22 01:27:08;;;;;;;;;;;;;;;26.82;44.32;100596.63;5091907;28;1299;-41
2023/07/22 01:29:33;;;;;;;;;;;;;;;27.06;44.87;100592.81;5086357;28;1906;-41
2023/07/22 01:31:59;;;;;;;;;;;;;;;24.24;47.53;100582.50;5094917;28;884;-39
2023/07/22 01:34:24;;;;;;;;;;;;;;;25.29;46.19;100578.09;5096736;28;1146;-40
2023/07/22 01:36:50;;;;;;;;;;;;;;;26.28;46.58;100588.47;5111949;28;1193;-40
2023/07/22 01:39:16;;;;;;;;;;;;;;;26.80;43.67;100574.38;5096383;28;1054;-40
2023/07/22 01:41:41;;;;;;;;;;;;;;;26.02;44.11;100449.53;5093297;28;1181;-38
2023/07/22 01:44:07;;;;;;;;;;;;;;;27.19;43.61;100565.19;5094795;28;1034;-41
2023/07/22 01:46:33;;;;;;;;;;;;;;;24.62;46.55;100563.13;5080937;28;1141;-41
2023/07/22 01:48:59;;;;;;;;;;;;;;;25.16;45.67;100559.81;5092441;28;1291;-41
2023/07/22 01:51:25;;;;;;;;;;;;;;;26.09;47.02;100550.19;5095665;28;1913;-40
2023/07/22 01:53:51;;;;;;;;;;;;;;;26.71;43.65;100550.16;5094871;28;1162;-40
2023/07/22 01:56:16;;;;;;;;;;;;;;;26.77;44.81;100552.16;5080997;28;1006;-40
2023/07/22 01:58:42;;;;;;;;;;;;;;;27.08;43.65;100552.16;5084777;28;1217;-40
2023/07/22 02:01:07;;;;;;;;;;;;;;;24.86;45.84;100534.53;5091897;28;1173;-41
2023/07/22 02:03:33;;;;;;;;;;;;;;;25.21;45.74;100535.06;5084402;28;1139;-41
2023/07/22 02:06:04;;;;;;;;;;;;;;;26.32;46.17;100553.91;5092848;28;1047;-41
2023/07/22 02:08:30;;;;;;;;;;;;;;;26.90;43.70;100554.19;5094773;28;1280;-40
2023/07/22 02:11:06;;;;;;;;;;;;;;;26.74;44.62;100552.50;5082364;28;1921;-41
2023/07/22 02:13:31;;;;;;;;;;;;;;;27.08;43.65;100560.25;5096241;28;1027;-39
2023/07/22 02:15:57;;;;;;;;;;;;;;;24.41;47.22;100567.19;5105309;28;1182;-40
2023/07/22 02:18:22;;;;;;;;;;;;;;;24.87;48.08;100580.09;5094184;28;1202;-40
2023/07/22 02:20:48;;;;;;;;;;;;;;;26.08;46.75;100574.63;5095586;28;1062;-41
2023/07/22 02:23:14;;;;;;;;;;;;;;;26.65;43.70;100578.75;5094641;28;1076;-40
2023/07/22 02:25:39;;;;;;;;;;;;;;;26.59;45.14;100575.94;5091122;28;1145;-39
2023/07/22 02:28:06;;;;;;;;;;;;;;;27.14;41.94;100573.00;5086752;28;1189;-40
2023/07/22 02:30:34;;;;;;;;;;;;;;;25.12;44.67;100558.50;5081972;28;1977;-40
2023/07/22 02:33:00;;;;;;;;;;;;;;;24.61;47.68;100556.09;5096344;28;1050;-41
2023/07/22 02:35:26;;;;;;;;;;;;;;;26.15;45.39;100564.81;5088839;28;1114;-40
2023/07/22 02:37:51;;;;;;;;;;;;;;;26.57;43.43;100562.63;5075326;28;1143;-40
2023/07/22 02:40:17;;;;;;;;;;;;;;;26.45;45.52;100573.03;5097594;28;1095;-41
2023/07/22 02:42:42;;;;;;;;;;;;;;;27.06;42.43;100571.22;5091713;28;1067;-40
2023/07/22 02:45:08;;;;;;;;;;;;;;;25.21;44.79;100574.63;5094804;28;1110;-39
2023/07/22 02:47:36;;;;;;;;;;;;;;;24.76;47.26;100580.41;5091417;28;1217;-41
2023/07/22 02:50:03;;;;;;;;;;;;;;;26.13;46.34;100577.63;5099456;28;1909;-41
2023/07/22 02:52:28;;;;;;;;;;;;;;;26.63;43.29;100579.94;5083858;28;1042;-40
2023/07/22 02:55:12;;;;;;;;;;;;;;;26.46;45.38;100572.00;5086585;28;1173;-40
2023/07/22 02:57:38;;;;;;;;;;;;;;;27.14;41.78;100573.84;5095781;28;1464;-34
2023/07/22 03:00:13;;;;;;;;;;;;;;;24.25;49.46;100578.78;5088615;28;2006;-31
2023/07/22 03:02:38;;;;;;;;;;;;;;;25.07;49.66;100571.66;5093273;28;1948;-31
2023/07/22 03:05:07;;;;;;;;;;;;;;;25.95;53.39;100581.47;5088289;28;1970;-34
2023/07/22 03:07:36;;;;;;;;;;;;;;;26.58;48.38;100585.03;5094582;28;2176;-34
2023/07/22 03:10:01;;;;;;;;;;;;;;;27.04;46.45;100605.69;5090942;28;2014;-33
2023/07/22 03:12:27;;;;;;;;;;;;;;;27.22;44.73;100616.13;5089089;28;1970;-31
2023/07/22 03:14:53;;;;;;;;;;;;;;;27.23;46.13;100623.19;5097084;28;1824;-32
2023/07/22 03:17:18;;;;;;;;;;;;;;;27.34;46.02;100631.84;5097265;28;1268;-33
2023/07/22 03:19:44;;;;;;;;;;;;;;;27.33;45.66;100639.09;5096732;28;1188;-31
2023/07/22 03:22:10;;;;;;;;;;;;;;;27.29;44.64;100653.19;5098658;28;1418;-34
2023/07/22 03:24:36;;;;;;;;;;;;;;;27.37;44.23;100659.31;5097195;28;1139;-33
2023/07/22 03:27:02;;;;;;;;;;;;;;;27.44;43.61;100656.72;5097854;28;1366;-34
2023/07/22 03:29:27;;;;;;;;;;;;;;;27.46;44.35;100653.81;5098500;28;1917;-33
2023/07/22 03:31:53;;;;;;;;;;;;;;;27.40;43.83;100641.91;5094497;28;1094;-32
2023/07/22 03:34:18;;;;;;;;;;;;;;;27.42;43.52;100637.16;5113719;28;1353;-34
2023/07/22 03:36:44;;;;;;;;;;;;;;;27.41;43.67;100630.06;5090120;28;1182;-32
2023/07/22 03:39:09;;;;;;;;;;;;;;;27.41;43.33;100623.84;5091811;28;1119;-28
2023/07/22 03:41:35;;;;;;;;;;;;;;;27.53;44.07;100610.69;5097504;28;1307;-31
2023/07/22 03:44:00;;;;;;;;;;;;;;;27.46;46.02;100610.59;5087603;28;2303;-33
2023/07/22 03:46:26;;;;;;;;;;;;;;;27.36;51.32;100624.41;5081146;28;1205;-32
2023/07/22 03:48:51;;;;;;;;;;;;;;;27.50;48.59;100630.78;5086516;28;1131;-31
2023/07/22 03:51:17;;;;;;;;;;;;;;;27.60;50.91;100625.94;5091029;28;1918;-33
2023/07/22 03:53:42;;;;;;;;;;;;;;;27.48;48.24;100624.72;5091050;28;1299;-33
2023/07/22 03:56:08;;;;;;;;;;;;;;;27.57;48.85;100629.03;5083757;28;1545;-27
2023/07/22 03:58:33;;;;;;;;;;;;;;;27.63;52.60;100636.38;5089720;28;1177;-31
2023/07/22 04:00:59;;;;;;;;;;;;;;;27.63;54.59;100619.31;5096310;28;1091;-29
2023/07/22 04:03:25;;;;;;;;;;;;;;;27.40;59.79;100612.19;5090495;28;1129;-31
2023/07/22 04:05:56;;;;;;;;;;;;;;;26.64;56.38;100616.69;5089069;28;1019;-36
2023/07/22 04:08:22;;;;;;;;;;;;;;;23.99;67.25;100620.88;5088925;28;833;-35
2023/07/22 04:10:51;;;;;;;;;;;;;;;26.25;58.56;100610.41;5082673;28;1918;-33
2023/07/22 04:13:17;;;;;;;;;;;;;;;23.84;61.10;100608.09;5093830;28;1847;-35
2023/07/22 04:15:42;;;;;;;;;;;;;;;25.55;58.15;100612.00;5092259;28;1036;-34
2023/07/22 04:18:08;;;;;;;;;;;;;;;24.17;58.55;100612.72;5076620;28;986;-35
2023/07/22 04:20:33;;;;;;;;;;;;;;;25.65;56.08;100610.97;5095321;28;1214;-34
2023/07/22 04:22:59;;;;;;;;;;;;;;;26.45;55.83;100610.78;5083079;28;1154;-34
2023/07/22 04:25:26;;;;;;;;;;;;;;;24.35;55.45;100603.66;5096158;28;1071;-33
2023/07/22 04:27:52;;;;;;;;;;;;;;;25.34;56.01;100603.69;5083696;28;1232;-36
2023/07/22 04:30:20;;;;;;;;;;;;;;;26.31;55.05;100601.59;5075723;28;1905;-35
2023/07/22 04:32:48;;;;;;;;;;;;;;;25.40;51.33;100593.06;5090570;28;1019;-36
2023/07/22 04:35:13;;;;;;;;;;;;;;;24.31;57.97;100602.31;5075788;28;995;-36
2023/07/22 04:37:39;;;;;;;;;;;;;;;26.26;51.58;100604.00;5076712;28;1050;-33
2023/07/22 04:40:06;;;;;;;;;;;;;;;26.73;50.73;100603.94;5083447;28;1091;-34
2023/07/22 04:42:32;;;;;;;;;;;;;;;24.93;51.70;100609.00;5096282;28;1101;-34
2023/07/22 04:44:57;;;;;;;;;;;;;;;24.51;56.20;100610.03;5084737;28;2113;-34
2023/07/22 04:47:23;;;;;;;;;;;;;;;26.29;50.28;100611.75;5085701;28;1071;-35
2023/07/22 04:49:48;;;;;;;;;;;;;;;26.78;49.46;100612.34;5076610;28;1897;-36
2023/07/22 04:52:14;;;;;;;;;;;;;;;26.85;51.11;100623.22;5076674;28;1032;-34
2023/07/22 04:54:41;;;;;;;;;;;;;;;23.63;54.73;100629.19;5076679;28;1039;-35
2023/07/22 04:57:07;;;;;;;;;;;;;;;25.18;53.29;100621.56;5081886;28;1074;-34
2023/07/22 04:59:32;;;;;;;;;;;;;;;26.07;52.91;100625.03;5084836;28;1064;-36
2023/07/22 05:01:58;;;;;;;;;;;;;;;26.97;47.86;100621.78;5094955;28;1090;-36
2023/07/22 05:04:24;;;;;;;;;;;;;;;24.67;50.71;100618.09;5085151;28;1197;-35
2023/07/22 05:06:50;;;;;;;;;;;;;;;24.55;54.55;100627.53;5077600;28;1079;-32
2023/07/22 05:09:15;;;;;;;;;;;;;;;26.25;49.91;100630.13;5082050;28;1906;-35
2023/07/22 05:11:40;;;;;;;;;;;;;;;26.84;47.09;100630.47;5089907;28;1027;-36
2023/07/22 05:14:06;;;;;;;;;;;;;;;24.12;51.67;100633.00;5094544;28;1950;-35
2023/07/22 05:16:31;;;;;;;;;;;;;;;24.86;52.83;100628.69;5087154;28;1134;-36
2023/07/22 05:18:57;;;;;;;;;;;;;;;26.25;50.80;100635.53;5096050;28;1096;-35
2023/07/22 05:21:23;;;;;;;;;;;;;;;26.94;46.26;100629.38;5085437;28;921;-35
2023/07/22 05:23:48;;;;;;;;;;;;;;;24.03;50.97;100632.16;5085782;28;1083;-32
2023/07/22 05:26:14;;;;;;;;;;;;;;;25.04;51.67;100625.81;5092409;28;1299;-35
2023/07/22 05:28:39;;;;;;;;;;;;;;;26.17;50.72;100614.84;5086251;28;1208;-34
2023/07/22 05:31:05;;;;;;;;;;;;;;;26.95;46.57;100607.59;5082685;28;1914;-36
2023/07/22 05:33:31;;;;;;;;;;;;;;;23.48;53.67;100606.50;5086399;28;1067;-36
2023/07/22 05:35:57;;;;;;;;;;;;;;;25.37;49.75;100606.88;5095784;28;1097;-35
2023/07/22 05:38:23;;;;;;;;;;;;;;;26.16;50.63;100609.63;5087701;28;1154;-33
2023/07/22 05:40:48;;;;;;;;;;;;;;;26.81;47.36;100611.97;5086338;28;1126;-35
2023/07/22 05:43:14;;;;;;;;;;;;;;;23.46;55.85;100607.63;5091241;28;1797;-33
2023/07/22 05:45:39;;;;;;;;;;;;;;;25.71;48.27;100599.47;5086536;28;1024;-35
2023/07/22 05:48:05;;;;;;;;;;;;;;;26.38;48.37;100601.72;5094061;28;1118;-36
2023/07/22 05:50:30;;;;;;;;;;;;;;;24.36;49.73;100602.66;5085586;28;1914;-35
2023/07/22 05:52:56;;;;;;;;;;;;;;;24.32;52.50;100599.44;5082439;28;1114;-35
2023/07/22 05:55:21;;;;;;;;;;;;;;;26.31;46.18;100606.16;5095855;28;1042;-35
2023/07/22 05:57:47;;;;;;;;;;;;;;;26.78;46.08;100598.84;5082461;28;857;-37
2023/07/22 06:00:13;;;;;;;;;;;;;;;23.29;56.20;100588.75;5075712;28;991;-35
2023/07/22 06:02:38;;;;;;;;;;;;;;;25.99;47.35;100592.75;5079713;28;995;-35
2023/07/22 06:05:04;;;;;;;;;;;;;;;26.96;46.95;100587.69;5095743;28;1062;-35
2023/07/22 06:07:29;;;;;;;;;;;;;;;23.84;50.89;100575.00;5091714;28;1117;-33
2023/07/22 06:09:55;;;;;;;;;;;;;;;25.22;49.68;100557.44;5095351;28;1906;-34
2023/07/22 06:12:20;;;;;;;;;;;;;;;26.57;47.20;100559.94;5087311;28;1130;-33
2023/07/22 06:14:46;;;;;;;;;;;;;;;24.69;49.10;100554.22;5077806;28;2034;-35
2023/07/22 06:17:11;;;;;;;;;;;;;;;23.89;54.46;100551.19;5084632;28;988;-33
2023/07/22 06:19:37;;;;;;;;;;;;;;;26.52;45.72;100559.66;5088029;28;1158;-35
2023/07/22 06:22:02;;;;;;;;;;;;;;;27.21;44.75;100548.81;5091441;28;1328;-33
2023/07/22 06:24:28;;;;;;;;;;;;;;;23.34;55.54;100542.63;5091556;28;1043;-32
2023/07/22 06:26:53;;;;;;;;;;;;;;;26.04;47.39;100549.94;5085970;28;1016;-33
2023/07/22 06:29:19;;;;;;;;;;;;;;;24.16;50.17;100538.47;5086107;28;1976;-33
2023/07/22 06:31:44;;;;;;;;;;;;;;;25.17;50.03;100537.25;5087930;28;1002;-32
2023/07/22 06:34:10;;;;;;;;;;;;;;;24.81;48.06;100546.63;5079906;28;1248;-34
2023/07/22 06:36:35;;;;;;;;;;;;;;;23.94;54.16;100559.59;5091680;28;1175;-34
2023/07/22 06:39:01;;;;;;;;;;;;;;;26.35;46.16;100550.88;5085638;28;1443;-35
2023/07/22 06:41:27;;;;;;;;;;;;;;;23.52;55.14;100556.00;5099635;28;1077;-35
2023/07/22 06:43:53;;;;;;;;;;;;;;;26.04;46.99;100555.31;5078334;28;1900;-35
2023/07/22 06:46:18;;;;;;;;;;;;;;;23.79;54.54;100563.94;5084857;28;848;-35
2023/07/22 06:48:44;;;;;;;;;;;;;;;26.19;46.70;100574.25;5086782;28;1106;-33
2023/07/22 06:51:09;;;;;;;;;;;;;;;23.58;53.49;100560.72;5086534;28;1978;-34
2023/07/22 06:53:35;;;;;;;;;;;;;;;25.75;47.72;100568.47;5082381;28;1066;-33
2023/07/22 06:56:00;;;;;;;;;;;;;;;23.89;50.61;100561.94;5092196;28;1269;-35
2023/07/22 06:58:27;;;;;;;;;;;;;;;25.24;49.51;100571.56;5088408;28;1214;-32
2023/07/22 07:00:53;;;;;;;;;;;;;;;24.82;48.56;100556.34;5089799;28;1033;-35
2023/07/22 07:03:18;;;;;;;;;;;;;;;24.91;49.64;100551.00;5085598;28;1394;-35
2023/07/22 07:05:44;;;;;;;;;;;;;;;25.89;46.33;100561.47;5089889;28;1092;-31
2023/07/22 07:08:12;;;;;;;;;;;;;;;24.30;53.14;100561.16;5097915;28;1078;-34
2023/07/22 07:10:39;;;;;;;;;;;;;;;26.60;45.42;100561.41;5084910;28;1906;-33
2023/07/22 07:13:04;;;;;;;;;;;;;;;23.56;56.10;100557.34;5098119;28;1070;-33
2023/07/22 07:15:30;;;;;;;;;;;;;;;26.35;46.37;100558.97;5078564;28;2302;-35
2023/07/22 07:17:55;;;;;;;;;;;;;;;23.60;51.78;100549.81;5079415;28;986;-35
2023/07/22 07:20:21;;;;;;;;;;;;;;;25.49;49.15;100553.44;5078828;28;1090;-34
2023/07/22 07:22:46;;;;;;;;;;;;;;;24.37;49.73;100542.50;5090726;28;1055;-33
2023/07/22 07:25:12;;;;;;;;;;;;;;;25.02;50.25;100552.47;5094715;28;1131;-33
2023/07/22 07:27:37;;;;;;;;;;;;;;;25.50;47.10;100554.28;5091208;28;1059;-35
2023/07/22 07:30:03;;;;;;;;;;;;;;;23.68;55.56;100555.19;5091769;28;1902;-34
2023/07/22 07:32:29;;;;;;;;;;;;;;;26.60;45.19;100558.72;5083791;28;1142;-33
2023/07/22 07:34:54;;;;;;;;;;;;;;;23.66;54.95;100561.72;5095793;28;1143;-34
2023/07/22 07:37:20;;;;;;;;;;;;;;;26.29;46.23;100558.63;5094989;28;1023;-35
2023/07/22 07:39:45;;;;;;;;;;;;;;;23.76;52.34;100559.72;5077760;28;1003;-35
2023/07/22 07:42:11;;;;;;;;;;;;;;;26.00;47.40;100554.84;5078229;28;1020;-34
2023/07/22 07:44:37;;;;;;;;;;;;;;;24.15;50.31;100538.63;5100651;28;1789;-33
2023/07/22 07:47:02;;;;;;;;;;;;;;;25.21;50.33;100545.00;5087684;28;1256;-34
2023/07/22 07:49:28;;;;;;;;;;;;;;;25.46;47.01;100545.72;5094129;28;1906;-34
2023/07/22 07:51:53;;;;;;;;;;;;;;;23.57;56.20;100542.91;5089186;28;1229;-34
2023/07/22 07:54:19;;;;;;;;;;;;;;;26.36;46.36;100536.38;5096617;28;1158;-36
2023/07/22 07:56:44;;;;;;;;;;;;;;;23.66;53.75;100537.53;5088416;28;1102;-32
2023/07/22 07:59:10;;;;;;;;;;;;;;;26.04;47.14;100528.38;5080191;28;1114;-33
2023/07/22 08:01:37;;;;;;;;;;;;;;;24.06;50.82;100522.50;5078010;28;1074;-34
2023/07/22 08:04:02;;;;;;;;;;;;;;;25.04;49.52;100520.84;5082930;28;1083;-34
2023/07/22 08:06:28;;;;;;;;;;;;;;;25.67;46.79;100528.13;5098084;28;1070;-35
2023/07/22 08:08:53;;;;;;;;;;;;;;;23.64;55.56;100521.59;5082182;28;1078;-35
2023/07/22 08:11:19;;;;;;;;;;;;;;;26.43;45.75;100526.50;5087515;28;1985;-31
2023/07/22 08:13:44;;;;;;;;;;;;;;;23.79;51.08;100526.34;5084509;28;1958;-35
2023/07/22 08:16:10;;;;;;;;;;;;;;;25.30;48.40;100515.19;5077871;28;1039;-34
2023/07/22 08:18:36;;;;;;;;;;;;;;;25.26;47.41;100513.00;5080222;28;1074;-34
2023/07/22 08:21:06;;;;;;;;;;;;;;;23.68;55.20;100514.06;5096035;28;1030;-33
2023/07/22 08:23:32;;;;;;;;;;;;;;;26.56;45.46;100516.97;5086500;28;1066;-35
2023/07/22 08:25:57;;;;;;;;;;;;;;;23.83;51.15;100512.41;5087901;28;1075;-36
2023/07/22 08:28:23;;;;;;;;;;;;;;;25.78;47.24;100511.53;5090985;28;1097;-36
2023/07/22 08:30:48;;;;;;;;;;;;;;;24.96;48.28;100510.94;5086883;28;1913;-30
2023/07/22 08:33:14;;;;;;;;;;;;;;;23.75;55.06;100498.13;5089908;28;1167;-31
2023/07/22 08:35:39;;;;;;;;;;;;;;;26.40;45.28;100508.84;5097248;28;1039;-32
2023/07/22 08:38:05;;;;;;;;;;;;;;;23.67;51.35;100501.66;5093246;28;1070;-36
2023/07/22 08:40:37;;;;;;;;;;;;;;;25.64;47.66;100498.84;5096834;28;1073;-34
2023/07/22 08:43:03;;;;;;;;;;;;;;;24.81;49.11;100503.56;5084251;28;1114;-34
2023/07/22 08:45:30;;;;;;;;;;;;;;;23.65;54.67;100512.56;5077150;28;2240;-34
2023/07/22 08:47:55;;;;;;;;;;;;;;;26.46;45.88;100507.25;5089787;28;1031;-32
2023/07/22 08:50:21;;;;;;;;;;;;;;;24.07;50.72;100516.09;5075840;28;1977;-34
2023/07/22 08:52:46;;;;;;;;;;;;;;;25.65;47.70;100509.44;5076526;28;1151;-33
2023/07/22 08:55:12;;;;;;;;;;;;;;;25.46;47.27;100509.88;5091362;28;1226;-35
2023/07/22 08:57:38;;;;;;;;;;;;;;;23.41;53.99;100514.19;5086027;28;1098;-34
2023/07/22 09:00:05;;;;;;;;;;;;;;;25.99;47.20;100507.31;5091435;28;1046;-35
2023/07/22 09:02:32;;;;;;;;;;;;;;;24.45;50.06;100499.47;5076331;28;1077;-34
2023/07/22 09:04:58;;;;;;;;;;;;;;;24.29;53.19;100502.19;5094798;28;1016;-33
2023/07/22 09:07:24;;;;;;;;;;;;;;;26.87;44.62;100502.44;5092177;28;1072;-35
2023/07/22 09:09:49;;;;;;;;;;;;;;;23.79;51.44;100488.75;5093202;28;1985;-32
2023/07/22 09:12:15;;;;;;;;;;;;;;;24.79;50.53;100492.13;5082108;28;1116;-33
2023/07/22 09:14:41;;;;;;;;;;;;;;;26.43;45.92;100483.38;5089366;28;1932;-33
2023/07/22 09:17:06;;;;;;;;;;;;;;;23.44;52.02;100478.13;5094548;28;1079;-34
2023/07/22 09:19:32;;;;;;;;;;;;;;;25.58;48.07;100481.50;5079260;28;1127;-34
2023/07/22 09:21:58;;;;;;;;;;;;;;;25.10;48.24;100477.09;5080889;28;1027;-35
2023/07/22 09:24:25;;;;;;;;;;;;;;;23.39;53.70;100470.50;5092768;28;1146;-36
2023/07/22 09:26:50;;;;;;;;;;;;;;;25.99;47.16;100483.06;5096109;28;1073;-31
2023/07/22 09:29:16;;;;;;;;;;;;;;;24.30;48.85;100469.75;5094760;28;1086;-34
2023/07/22 09:31:48;;;;;;;;;;;;;;;23.19;57.29;100478.84;5082180;28;1906;-35
2023/07/22 09:34:14;;;;;;;;;;;;;;;26.11;46.48;100472.69;5084194;28;1118;-33
2023/07/22 09:36:52;;;;;;;;;;;;;;;23.38;51.71;100466.16;5089170;28;1059;-35
2023/07/22 09:39:18;;;;;;;;;;;;;;;25.30;48.81;100466.72;5076548;28;1066;-34
2023/07/22 09:41:44;;;;;;;;;;;;;;;24.73;48.70;100457.88;5075722;28;988;-35
2023/07/22 09:44:10;;;;;;;;;;;;;;;23.00;54.01;100455.84;5076461;28;1898;-36
2023/07/22 09:46:35;;;;;;;;;;;;;;;25.59;48.19;100452.72;5093615;28;1023;-32
2023/07/22 09:49:05;;;;;;;;;;;;;;;24.29;49.84;100451.13;5084399;28;995;-34
2023/07/22 09:51:37;;;;;;;;;;;;;;;24.47;51.83;100453.59;5092245;28;1905;-35
2023/07/22 09:54:03;;;;;;;;;;;;;;;26.58;45.78;100456.41;5084617;28;1288;-33
2023/07/22 09:56:29;;;;;;;;;;;;;;;23.35;53.19;100445.88;5093126;28;1261;-35
2023/07/22 09:58:54;;;;;;;;;;;;;;;26.00;47.47;100444.34;5094812;28;999;-35
2023/07/22 10:01:20;;;;;;;;;;;;;;;24.51;49.74;100441.47;5095299;28;1276;-35
2023/07/22 10:03:46;;;;;;;;;;;;;;;23.29;56.09;100441.13;5095042;28;1356;-34
2023/07/22 10:06:11;;;;;;;;;;;;;;;26.25;46.44;100430.59;5094768;28;1379;-35
2023/07/22 10:08:37;;;;;;;;;;;;;;;23.99;50.61;100429.31;5079851;28;1143;-36
2023/07/22 10:11:03;;;;;;;;;;;;;;;24.38;52.56;100430.41;5079100;28;1988;-31
2023/07/22 10:13:28;;;;;;;;;;;;;;;26.75;44.72;100435.47;5085771;28;1827;-30
2023/07/22 10:15:54;;;;;;;;;;;;;;;23.44;52.20;100425.25;5076103;28;1007;-35
2023/07/22 10:18:20;;;;;;;;;;;;;;;26.01;46.84;100434.38;5075145;28;1099;-34
2023/07/22 10:20:46;;;;;;;;;;;;;;;24.67;49.33;100435.19;5074452;28;995;-35
2023/07/22 10:23:13;;;;;;;;;;;;;;;23.09;54.17;100433.38;5085964;28;848;-34
2023/07/22 10:25:39;;;;;;;;;;;;;;;25.97;46.86;100431.22;5077915;28;995;-33
2023/07/22 10:28:04;;;;;;;;;;;;;;;24.28;49.41;100423.41;5075727;28;1161;-35
2023/07/22 10:30:30;;;;;;;;;;;;;;;24.26;52.80;100424.56;5090550;28;1909;-36
2023/07/22 10:32:55;;;;;;;;;;;;;;;26.89;44.00;100417.53;5086224;28;1166;-36
2023/07/22 10:35:30;;;;;;;;;;;;;;;23.52;51.77;100421.75;5078221;28;1510;-35
2023/07/22 10:37:56;;;;;;;;;;;;;;;25.95;47.20;100413.53;5084744;28;1049;-33
2023/07/22 10:40:24;;;;;;;;;;;;;;;24.66;48.95;100414.69;5075632;28;1091;-34
2023/07/22 10:43:05;;;;;;;;;;;;;;;23.83;54.44;100422.91;5083771;28;995;-34
2023/07/22 10:45:32;;;;;;;;;;;;;;;26.80;44.71;100424.09;5082277;28;1087;-33
2023/07/22 10:48:06;;;;;;;;;;;;;;;23.59;51.59;100425.44;5095407;28;934;-34
2023/07/22 10:50:41;;;;;;;;;;;;;;;25.73;47.50;100427.72;5087998;28;2008;-35
2023/07/22 10:53:09;;;;;;;;;;;;;;;24.73;48.54;100419.38;5089171;28;1081;-35
2023/07/22 10:55:54;;;;;;;;;;;;;;;23.55;55.24;100429.47;5085131;28;1062;-34
2023/07/22 10:58:20;;;;;;;;;;;;;;;26.61;45.31;100433.63;5081348;28;1309;-33
2023/07/22 11:00:45;;;;;;;;;;;;;;;23.75;51.02;100436.34;5097653;28;1301;-35
2023/07/22 11:03:12;;;;;;;;;;;;;;;25.58;48.00;100434.88;5097303;28;1068;-34
2023/07/22 11:05:47;;;;;;;;;;;;;;;25.45;46.99;100425.56;5087955;28;1091;-35
2023/07/22 11:08:13;;;;;;;;;;;;;;;23.53;55.35;100425.25;5087526;28;1126;-33
2023/07/22 11:10:47;;;;;;;;;;;;;;;26.33;45.52;100431.56;5097037;28;1930;-35
2023/07/22 11:13:13;;;;;;;;;;;;;;;24.00;50.39;100423.75;5096573;28;1851;-34
2023/07/22 11:15:39;;;;;;;;;;;;;;;25.01;49.61;100419.78;5083482;28;1059;-34
2023/07/22 11:18:04;;;;;;;;;;;;;;;26.74;44.74;100424.84;5085351;28;1378;-36
2023/07/22 11:20:30;;;;;;;;;;;;;;;23.65;51.35;100425.78;5077300;28;1092;-35
2023/07/22 11:22:56;;;;;;;;;;;;;;;24.79;50.04;100422.19;5078592;28;1041;-32
2023/07/22 11:25:22;;;;;;;;;;;;;;;26.79;44.58;100427.81;5083265;28;1463;-35
2023/07/22 11:27:47;;;;;;;;;;;;;;;23.41;51.59;100414.00;5098838;28;1189;-33
2023/07/22 11:30:13;;;;;;;;;;;;;;;25.87;47.27;100422.56;5079702;28;1918;-35
2023/07/22 11:32:41;;;;;;;;;;;;;;;24.88;48.02;100417.63;5078689;28;980;-36
2023/07/22 11:35:07;;;;;;;;;;;;;;;23.65;55.01;100418.56;5091674;28;1055;-34
2023/07/22 11:37:33;;;;;;;;;;;;;;;26.65;45.17;100418.72;5089285;28;1167;-35
2023/07/22 11:40:02;;;;;;;;;;;;;;;23.95;51.00;100412.69;5091152;28;1134;-35
2023/07/22 11:42:27;;;;;;;;;;;;;;;23.12;56.77;100424.19;5078650;28;1288;-34
2023/07/22 11:44:53;;;;;;;;;;;;;;;25.98;47.72;100418.56;5080445;28;2138;-34
2023/07/22 11:47:18;;;;;;;;;;;;;;;23.98;51.05;100423.06;5078326;28;1328;-34
2023/07/22 11:49:47;;;;;;;;;;;;;;;22.86;54.75;100425.94;5091654;28;1960;-30
2023/07/22 11:52:17;;;;;;;;;;;;;;;25.50;48.92;100436.63;5077325;28;1335;-35
2023/07/22 11:54:43;;;;;;;;;;;;;;;23.92;50.87;100419.22;5078071;28;1320;-33
2023/07/22 11:57:21;;;;;;;;;;;;;;;24.18;53.39;100415.53;5078012;28;1276;-34
2023/07/22 11:59:49;;;;;;;;;;;;;;;26.11;47.47;100401.78;5084448;28;1439;-35
2023/07/22 12:02:19;;;;;;;;;;;;;;;23.25;52.94;100396.88;5084084;28;1323;-31
2023/07/22 12:04:57;;;;;;;;;;;;;;;25.49;48.73;100404.50;5077939;28;1245;-34
2023/07/22 12:07:23;;;;;;;;;;;;;;;24.56;49.58;100401.47;5082562;28;1281;-30
2023/07/22 12:09:49;;;;;;;;;;;;;;;22.98;53.73;100393.44;5097910;28;2008;-32
2023/07/22 12:12:14;;;;;;;;;;;;;;;25.61;48.52;100407.59;5082369;28;1348;-35
2023/07/22 12:14:40;;;;;;;;;;;;;;;24.26;50.33;100403.06;5096897;28;2207;-34
2023/07/22 12:17:06;;;;;;;;;;;;;;;23.67;55.95;100405.78;5079060;28;1397;-35
2023/07/22 12:19:32;;;;;;;;;;;;;;;26.34;46.28;100411.66;5076210;28;1325;-32
2023/07/22 12:21:57;;;;;;;;;;;;;;;23.62;52.05;100404.63;5075812;28;1348;-35
2023/07/22 12:24:23;;;;;;;;;;;;;;;25.27;49.74;100402.47;5090518;28;996;-33
2023/07/22 12:26:48;;;;;;;;;;;;;;;25.35;47.81;100406.94;5089874;28;1137;-33
2023/07/22 12:29:14;;;;;;;;;;;;;;;23.09;53.06;100390.44;5077792;28;1244;-33
2023/07/22 12:31:39;;;;;;;;;;;;;;;25.32;48.82;100391.16;5077005;28;1979;-34
2023/07/22 12:34:05;;;;;;;;;;;;;;;24.68;49.31;100396.53;5077520;28;1264;-34
2023/07/22 12:36:30;;;;;;;;;;;;;;;23.32;56.50;100395.19;5066613;28;1348;-33
2023/07/22 12:38:56;;;;;;;;;;;;;;;26.21;46.67;100393.41;5076893;28;1300;-35
2023/07/22 12:41:21;;;;;;;;;;;;;;;24.16;50.98;100387.97;5063145;28;1051;-35
2023/07/22 12:43:49;;;;;;;;;;;;;;;23.08;53.70;100382.56;5052546;28;1825;-35